Hauptseite
METAR-TAF:

METAR-TAF

Flughäfen :

Grise Fiord, Nunavut, Kanada

Breite: 76-25N, Länge: 082-54W, Höhe: 45 m

Beobachtung

Neuester Wetterbericht von vor 7 Stunden und 53 Minuten, um 20:00 UTC
Wind 5 kt aus unterschiedlichen Richtungen, Böen bis zu 18 kt
Temperatur 0°C
Luftfeuchtigkeit 55%
Luftdruck 1019 hPa
Sichtweite: 24.1 km
Leicht bewölkt in der Höhe von 2200 ft
Aufgelockert bewölkt in der Höhe von 3900 ft
Aufgelockert bewölkt in der Höhe von 7500 ft
Durchbrochene Bewölkung in der Höhe von 24000 ft

METAR: CWGZ 182000Z VRB05G18KT 15SM FEW022 SCT039 SCT075 BKN240 M00/M08 A3009 RMK SC1SC3AC1CI3 SC TR 0.1/-2/TR/2 SNW CVR/ LAST STFD OB/NEXT 191600Z SLP195

Zeit: 23:53 (03:53 UTC)


TAF: fehlend

Wetterbeobachtungen und Prognosen von mehr als 4000 Flughäfen (METAR und TAF Bericht).

Die verfügbaren Stationen werden durch gelbe und rote Markierungen auf der Karte dargestellt.

Führen Sie die Maus auf sie, um den Namen der Station zu sehen.

Darauf klicken, um die Beobachtung von Wetterbeobachtungen und Prognosen zu sehen.

Um die Karte zu ändern : klicken Sie auf den grünen Tasten mit einem schwarzen Kreuz Zum Vergrößern, auf den grünen Button mit einem Gedankenstrich zu verkleinern, oder auf die grünen Pfeile für benachbarte Karten.


METAR-TAF: